createdAt,value
2022-08-08T00:00:53.941Z,72.14
2022-08-08T00:00:54.451Z,72.31
2022-08-08T00:02:03.463Z,72.44
2022-08-08T00:02:32.912Z,72.44
2022-08-08T00:03:31.786Z,72.34
2022-08-08T00:04:25.670Z,73.25
2022-08-08T00:05:43.506Z,72.44
2022-08-08T00:06:28.215Z,72.04
2022-08-08T00:07:25.566Z,72.04
2022-08-08T00:08:27.150Z,72.24
2022-08-08T00:09:25.533Z,72.75
2022-08-08T00:10:28.600Z,72.17
2022-08-08T00:11:25.513Z,72.14
2022-08-08T00:12:25.534Z,72.14
2022-08-08T00:14:17.549Z,72.14
2022-08-08T00:14:48.503Z,72.65
2022-08-08T00:15:56.696Z,73.56
2022-08-08T00:16:25.470Z,73.39
2022-08-08T00:17:25.434Z,73.56
2022-08-08T00:18:26.751Z,72.65
2022-08-08T00:19:25.401Z,72.85
2022-08-08T00:20:25.400Z,73.25
2022-08-08T00:21:25.374Z,73.49
2022-08-08T00:22:25.365Z,73.59
2022-08-08T00:23:28.388Z,73.49
2022-08-08T00:24:29.983Z,73.59
2022-08-08T00:25:25.321Z,73.19
2022-08-08T00:26:29.596Z,73.80
2022-08-08T00:27:25.296Z,73.09
2022-08-08T00:28:35.755Z,73.09
2022-08-08T00:29:44.718Z,73.09
2022-08-08T00:30:25.265Z,73.49
2022-08-08T00:32:20.944Z,73.39
2022-08-08T00:32:34.362Z,72.58
2022-08-08T00:33:25.219Z,72.92
2022-08-08T00:34:26.964Z,73.19
2022-08-08T00:35:25.191Z,73.59
2022-08-08T00:36:25.608Z,73.53
2022-08-08T00:37:47.461Z,73.90
2022-08-08T00:38:32.342Z,74.04
2022-08-08T00:41:05.996Z,73.93
2022-08-08T00:41:12.951Z,73.53
2022-08-08T00:41:45.056Z,74.13
2022-08-08T00:42:32.820Z,73.83
2022-08-08T00:43:25.166Z,73.46
2022-08-08T00:44:25.068Z,74.24
2022-08-08T00:45:27.043Z,74.54
2022-08-08T00:46:25.048Z,75.18
2022-08-08T00:47:25.026Z,74.64
2022-08-08T00:48:30.226Z,73.86
2022-08-08T00:49:24.997Z,73.97
2022-08-08T00:50:24.988Z,75.08
2022-08-08T00:51:24.975Z,75.28
2022-08-08T00:52:24.969Z,75.08
2022-08-08T00:53:24.948Z,74.88
2022-08-08T00:54:28.755Z,75.28
2022-08-08T00:55:52.677Z,75.28
2022-08-08T00:56:29.619Z,74.48
2022-08-08T00:57:34.429Z,74.10
2022-08-08T00:58:30.586Z,74.41
2022-08-08T00:59:43.256Z,74.71
2022-08-08T01:00:24.862Z,75.22
2022-08-08T01:01:37.717Z,75.82
2022-08-08T01:03:16.093Z,75.93
2022-08-08T01:04:02.252Z,75.73
2022-08-08T01:04:29.660Z,75.52
2022-08-08T01:05:42.493Z,75.52
2022-08-08T01:06:27.707Z,75.22
2022-08-08T01:07:34.424Z,74.95
2022-08-08T01:08:28.860Z,74.91
2022-08-08T01:09:36.783Z,75.96
2022-08-08T01:10:24.727Z,76.17
2022-08-08T01:11:24.709Z,76.37
2022-08-08T01:12:29.498Z,76.67
2022-08-08T01:13:43.343Z,76.37
2022-08-08T01:14:54.447Z,76.37
2022-08-08T01:15:26.080Z,76.27
2022-08-08T01:16:27.815Z,75.46
2022-08-08T01:17:35.073Z,75.66
2022-08-08T01:18:53.565Z,76.37
2022-08-08T01:19:25.485Z,76.23
2022-08-08T01:20:24.589Z,76.84
2022-08-08T01:22:03.659Z,76.87
2022-08-08T01:22:34.958Z,75.42
2022-08-08T01:24:03.253Z,75.15
2022-08-08T01:24:24.542Z,75.66
2022-08-08T01:25:26.455Z,75.76
2022-08-08T01:26:24.508Z,76.27
2022-08-08T01:27:32.982Z,76.17
2022-08-08T01:28:28.159Z,75.96
2022-08-08T01:29:24.470Z,76.47
2022-08-08T01:30:25.478Z,75.56
2022-08-08T01:32:13.236Z,76.17
2022-08-08T01:32:24.429Z,76.98
2022-08-08T01:33:33.697Z,76.87
2022-08-08T01:34:29.130Z,75.86
2022-08-08T01:35:29.790Z,75.86
2022-08-08T01:36:24.380Z,76.06
2022-08-08T01:37:57.465Z,76.78
2022-08-08T01:38:24.359Z,77.08
2022-08-08T01:39:27.936Z,77.42
2022-08-08T01:40:24.328Z,76.71
2022-08-08T01:41:24.305Z,77.12
2022-08-08T01:42:35.507Z,77.42
2022-08-08T01:43:24.283Z,76.51
2022-08-08T01:44:26.518Z,76.40
2022-08-08T01:45:24.253Z,76.61
2022-08-08T01:46:24.241Z,76.51
2022-08-08T01:48:03.653Z,76.51
2022-08-08T01:48:30.977Z,76.91
2022-08-08T01:49:37.649Z,77.52
2022-08-08T01:50:26.477Z,77.32
2022-08-08T01:51:32.002Z,77.83
2022-08-08T01:52:49.822Z,77.25
2022-08-08T01:54:33.347Z,78.27
2022-08-08T01:55:17.728Z,78.53
2022-08-08T01:56:27.481Z,78.13
2022-08-08T01:56:31.197Z,77.72
2022-08-08T01:57:24.167Z,77.05
2022-08-08T01:58:31.986Z,77.45
2022-08-08T01:59:24.076Z,77.66
2022-08-08T02:00:24.063Z,77.86
2022-08-08T02:01:24.100Z,79.18
2022-08-08T02:02:34.520Z,77.25
2022-08-08T02:03:49.289Z,78.06
2022-08-08T02:04:24.008Z,77.97
2022-08-08T02:05:23.986Z,77.86
2022-08-08T02:06:32.685Z,79.18
2022-08-08T02:07:23.973Z,78.67
2022-08-08T02:08:23.946Z,78.67
2022-08-08T02:10:02.751Z,78.67
2022-08-08T02:10:29.443Z,78.67
2022-08-08T02:11:52.885Z,79.28
2022-08-08T02:12:23.898Z,78.37
2022-08-08T02:13:53.176Z,77.76
2022-08-08T02:14:24.892Z,78.06
2022-08-08T02:15:23.856Z,78.81
2022-08-08T02:16:23.842Z,79.12
2022-08-08T02:17:23.835Z,77.90
2022-08-08T02:18:23.817Z,78.30
2022-08-08T02:19:41.650Z,78.51
2022-08-08T02:21:01.358Z,79.16
2022-08-08T02:21:23.785Z,79.12
2022-08-08T02:22:28.354Z,78.61
2022-08-08T02:23:28.952Z,78.20
2022-08-08T02:24:23.880Z,78.51
2022-08-08T02:25:23.728Z,79.02
2022-08-08T02:26:23.716Z,78.95
2022-08-08T02:27:23.707Z,79.86
2022-08-08T02:28:25.938Z,79.36
2022-08-08T02:29:24.694Z,79.36
2022-08-08T02:30:25.523Z,79.83
2022-08-08T02:31:43.928Z,79.25
2022-08-08T02:32:26.263Z,78.95
2022-08-08T02:33:23.615Z,79.25
2022-08-08T02:34:27.589Z,79.52
2022-08-08T02:35:24.606Z,79.25
2022-08-08T02:36:23.741Z,78.75
2022-08-08T02:37:51.941Z,79.19
2022-08-08T02:38:25.459Z,79.60
2022-08-08T02:39:41.866Z,79.80
2022-08-08T02:40:23.544Z,80.82
2022-08-08T02:41:59.205Z,80.41
2022-08-08T02:42:35.932Z,80.04
2022-08-08T02:44:36.884Z,80.51
2022-08-08T02:44:37.276Z,80.65
2022-08-08T02:45:23.459Z,80.96
2022-08-08T02:46:23.437Z,80.55
2022-08-08T02:47:23.429Z,80.85
2022-08-08T02:48:26.089Z,80.65
2022-08-08T02:49:48.328Z,80.15
2022-08-08T02:50:23.383Z,80.04
2022-08-08T02:51:29.746Z,80.15
2022-08-08T02:52:32.605Z,80.24
2022-08-08T02:53:23.977Z,80.35
2022-08-08T02:54:23.335Z,80.76
2022-08-08T02:55:23.325Z,81.06
2022-08-08T02:56:23.309Z,81.51
2022-08-08T02:57:24.008Z,82.32
2022-08-08T02:58:26.475Z,81.67
2022-08-08T02:59:37.121Z,83.13
2022-08-08T03:00:30.923Z,82.73
2022-08-08T03:01:23.355Z,82.07
2022-08-08T03:02:30.145Z,82.28
2022-08-08T03:05:00.228Z,82.18
2022-08-08T03:05:02.419Z,81.98
2022-08-08T03:05:23.190Z,81.87
2022-08-08T03:06:24.194Z,81.98
2022-08-08T03:07:23.168Z,82.18
2022-08-08T03:08:23.152Z,82.28
2022-08-08T03:09:23.133Z,82.18
2022-08-08T03:10:33.431Z,81.87
2022-08-08T03:11:48.052Z,81.57
2022-08-08T03:12:36.324Z,81.30
2022-08-08T03:15:53.994Z,81.51
2022-08-08T03:15:58.957Z,80.99
2022-08-08T03:15:59.220Z,81.20
2022-08-08T03:16:35.602Z,81.34
2022-08-08T03:17:34.057Z,81.44
2022-08-08T03:18:31.787Z,81.74
2022-08-08T03:19:23.005Z,81.71
2022-08-08T03:20:23.212Z,81.71
2022-08-08T03:21:26.909Z,81.85
2022-08-08T03:22:38.792Z,81.85
2022-08-08T03:23:23.701Z,82.32
2022-08-08T03:24:22.926Z,81.91
2022-08-08T03:25:22.911Z,81.81
2022-08-08T03:26:23.145Z,81.54
2022-08-08T03:27:27.185Z,81.54
2022-08-08T03:28:22.869Z,82.05
2022-08-08T03:29:51.186Z,82.05
2022-08-08T03:30:22.848Z,82.66
2022-08-08T03:31:25.634Z,83.48
2022-08-08T03:32:22.909Z,83.37
2022-08-08T03:33:54.660Z,83.07
2022-08-08T03:34:22.785Z,83.37
2022-08-08T03:35:22.778Z,83.37
2022-08-08T03:36:27.522Z,83.37
2022-08-08T03:38:53.537Z,82.97
2022-08-08T03:38:57.107Z,82.87
2022-08-08T03:39:22.785Z,82.66
2022-08-08T03:40:29.099Z,83.37
2022-08-08T03:42:27.659Z,83.48
2022-08-08T03:42:30.219Z,83.48
2022-08-08T03:43:22.680Z,83.21
2022-08-08T03:44:25.254Z,84.12
2022-08-08T03:46:06.680Z,84.23
2022-08-08T03:46:25.342Z,83.78
2022-08-08T03:47:22.632Z,83.58
2022-08-08T03:49:09.799Z,83.89
2022-08-08T03:49:56.866Z,83.89
2022-08-08T03:50:24.800Z,83.48
2022-08-08T03:51:40.069Z,83.72
2022-08-08T03:52:22.543Z,84.23
2022-08-08T03:53:24.218Z,84.19
2022-08-08T03:54:40.659Z,83.68
2022-08-08T03:55:57.301Z,83.17
2022-08-08T03:56:32.261Z,83.17
2022-08-08T03:58:09.610Z,82.80
2022-08-08T03:58:33.742Z,83.21
2022-08-08T03:59:23.484Z,83.92
2022-08-08T04:00:22.443Z,83.62
2022-08-08T04:01:24.692Z,83.82
2022-08-08T04:02:32.666Z,83.51
2022-08-08T04:03:56.839Z,83.21
2022-08-08T04:04:23.197Z,83.42
2022-08-08T04:05:28.538Z,83.51
2022-08-08T04:06:22.362Z,83.82
2022-08-08T04:07:22.353Z,84.12
2022-08-08T04:08:32.834Z,83.31
2022-08-08T04:09:22.332Z,83.31
2022-08-08T04:10:22.314Z,83.62
2022-08-08T04:11:23.597Z,84.12
2022-08-08T04:12:22.777Z,84.43
2022-08-08T04:13:22.266Z,84.12
2022-08-08T04:14:34.749Z,84.23
2022-08-08T04:15:22.564Z,84.23
2022-08-08T04:16:22.224Z,84.33
2022-08-08T04:17:45.888Z,83.72
2022-08-08T04:18:22.208Z,83.62
2022-08-08T04:19:24.020Z,84.12
2022-08-08T04:20:28.449Z,83.72
2022-08-08T04:21:23.570Z,84.12
2022-08-08T04:22:26.922Z,83.82
2022-08-08T04:23:22.140Z,83.72
2022-08-08T04:24:29.394Z,84.84
2022-08-08T04:25:22.117Z,84.94
2022-08-08T04:26:25.821Z,84.74
2022-08-08T04:28:01.439Z,84.64
2022-08-08T04:28:36.619Z,83.42
2022-08-08T04:29:22.059Z,83.42
2022-08-08T04:30:23.043Z,83.82
2022-08-08T04:31:30.636Z,83.62
2022-08-08T04:32:40.906Z,83.72
2022-08-08T04:33:22.010Z,83.31
2022-08-08T04:34:21.996Z,83.45
2022-08-08T04:35:22.893Z,83.96
2022-08-08T04:36:21.965Z,84.17
2022-08-08T04:37:31.618Z,84.27
2022-08-08T04:38:22.376Z,84.37
2022-08-08T04:40:04.717Z,84.82
2022-08-08T04:40:24.021Z,84.82
2022-08-08T04:41:21.974Z,84.92
2022-08-08T04:42:21.890Z,85.22
2022-08-08T04:43:22.024Z,85.43
2022-08-08T04:44:21.865Z,85.43
2022-08-08T04:45:21.846Z,85.22
2022-08-08T04:46:21.834Z,85.60
2022-08-08T04:47:21.918Z,85.43
2022-08-08T04:48:22.384Z,85.49
2022-08-08T04:49:21.792Z,85.49
2022-08-08T04:50:25.463Z,84.88
2022-08-08T04:51:27.970Z,84.47
2022-08-08T04:52:25.310Z,84.23
2022-08-08T04:54:37.979Z,83.72
2022-08-08T04:54:38.148Z,83.42
2022-08-08T04:55:21.715Z,83.72
2022-08-08T04:56:21.709Z,83.51
2022-08-08T04:57:21.691Z,83.11
2022-08-08T04:58:22.526Z,83.11
2022-08-08T04:59:29.756Z,83.11
2022-08-08T05:00:21.650Z,83.51
2022-08-08T05:01:21.692Z,83.42
2022-08-08T05:02:22.532Z,83.51
2022-08-08T05:04:09.032Z,83.27
2022-08-08T05:04:21.602Z,82.66
2022-08-08T05:05:45.379Z,82.76
2022-08-08T05:06:27.924Z,82.97
2022-08-08T05:07:22.589Z,82.66
2022-08-08T05:08:21.553Z,82.35
2022-08-08T05:09:21.539Z,82.26
2022-08-08T05:10:21.522Z,82.42
2022-08-08T05:11:24.555Z,82.82
2022-08-08T05:12:21.498Z,81.91
2022-08-08T05:13:22.501Z,81.81
2022-08-08T05:14:21.472Z,81.51
2022-08-08T05:15:22.421Z,81.40
2022-08-08T05:16:54.856Z,80.99
2022-08-08T05:17:21.606Z,80.90
2022-08-08T05:18:21.420Z,80.85
2022-08-08T05:20:10.604Z,80.76
2022-08-08T05:20:21.399Z,81.26
2022-08-08T05:21:21.378Z,81.23
2022-08-08T05:22:21.370Z,80.11
2022-08-08T05:23:21.353Z,79.90
2022-08-08T05:24:22.471Z,79.50
2022-08-08T05:25:21.571Z,79.80
2022-08-08T05:26:21.313Z,80.17
2022-08-08T05:27:21.529Z,79.46
2022-08-08T05:28:52.410Z,78.85
2022-08-08T05:29:22.283Z,78.95
2022-08-08T05:30:28.577Z,78.75
2022-08-08T05:32:04.492Z,78.64
2022-08-08T05:32:26.927Z,78.64
2022-08-08T05:33:21.212Z,79.12
2022-08-08T05:34:21.209Z,79.08
2022-08-08T05:35:23.527Z,78.37
2022-08-08T05:36:25.629Z,78.17
2022-08-08T05:37:22.181Z,78.17
2022-08-08T05:38:31.797Z,77.32
2022-08-08T05:39:21.221Z,77.01
2022-08-08T05:40:27.706Z,77.01
2022-08-08T05:41:23.143Z,76.71
2022-08-08T05:42:25.913Z,76.47
2022-08-08T05:43:39.787Z,76.47
2022-08-08T05:44:22.092Z,75.86
2022-08-08T05:45:31.448Z,75.32
2022-08-08T05:46:21.041Z,75.22
2022-08-08T05:47:21.457Z,75.22
2022-08-08T05:48:28.786Z,74.30
2022-08-08T05:49:22.024Z,75.18
2022-08-08T05:50:20.989Z,75.79
2022-08-08T05:51:20.968Z,73.86
2022-08-08T05:52:31.657Z,73.56
2022-08-08T05:53:54.892Z,73.43
2022-08-08T05:54:26.787Z,73.12
2022-08-08T05:55:20.912Z,73.39
2022-08-08T05:56:20.907Z,72.78
2022-08-08T05:57:59.634Z,72.55
2022-08-08T05:58:24.063Z,73.05
2022-08-08T05:59:53.500Z,72.81
2022-08-08T06:00:25.402Z,70.89
2022-08-08T06:01:55.534Z,71.47
2022-08-08T06:02:20.834Z,70.86
2022-08-08T06:03:25.243Z,70.25
2022-08-08T06:04:23.267Z,70.62
2022-08-08T06:05:33.066Z,70.42
2022-08-08T06:06:23.468Z,69.92
2022-08-08T06:07:20.768Z,69.82
2022-08-08T06:08:33.683Z,69.62
2022-08-08T06:09:58.557Z,68.60
2022-08-08T06:10:24.656Z,69.08
2022-08-08T06:11:20.709Z,68.87
2022-08-08T06:12:29.748Z,68.13
2022-08-08T06:13:22.573Z,68.24
2022-08-08T06:14:20.666Z,68.61
2022-08-08T06:15:20.648Z,67.19
2022-08-08T06:16:27.607Z,66.08
2022-08-08T06:17:20.622Z,65.05
2022-08-08T06:18:22.279Z,64.54
2022-08-08T06:19:20.599Z,64.07
2022-08-08T06:20:20.833Z,64.98
2022-08-08T06:21:32.496Z,64.95
2022-08-08T06:22:35.983Z,64.92
2022-08-08T06:23:26.329Z,63.90
2022-08-08T06:24:23.099Z,63.37
2022-08-08T06:26:34.840Z,63.87
2022-08-08T06:26:38.246Z,64.05
2022-08-08T06:27:20.494Z,63.54
2022-08-08T06:28:20.524Z,63.34
2022-08-08T06:29:26.635Z,62.71
2022-08-08T06:30:26.455Z,62.48
2022-08-08T06:31:21.465Z,62.07
2022-08-08T06:32:20.426Z,61.67
2022-08-08T06:33:36.487Z,62.38
2022-08-08T06:34:27.430Z,62.75
2022-08-08T06:36:04.160Z,62.72
2022-08-08T06:36:20.379Z,61.11
2022-08-08T06:37:25.296Z,62.08
2022-08-08T06:38:20.357Z,60.58
2022-08-08T06:39:20.431Z,59.38
2022-08-08T06:40:20.331Z,59.47
2022-08-08T06:41:20.310Z,59.78
2022-08-08T06:42:20.308Z,60.08
2022-08-08T06:43:20.283Z,60.18
2022-08-08T06:44:23.018Z,59.25
2022-08-08T06:45:20.271Z,60.65
2022-08-08T06:46:23.594Z,59.95
2022-08-08T06:47:22.236Z,59.05
2022-08-08T06:48:20.217Z,59.27
2022-08-08T06:49:20.401Z,60.18
2022-08-08T06:50:32.440Z,60.28
2022-08-08T06:51:20.172Z,59.55
2022-08-08T06:52:20.172Z,59.95
2022-08-08T06:53:20.832Z,60.02
2022-08-08T06:54:20.138Z,60.12
2022-08-08T06:55:20.123Z,59.92
2022-08-08T06:56:23.247Z,58.81
2022-08-08T06:57:20.101Z,60.15
2022-08-08T06:58:20.090Z,60.05
2022-08-08T06:59:20.074Z,60.55
2022-08-08T07:00:30.498Z,61.43
2022-08-08T07:02:17.711Z,60.22
2022-08-08T07:02:28.492Z,60.10
2022-08-08T07:03:52.108Z,59.33
2022-08-08T07:04:40.708Z,58.33
2022-08-08T07:05:24.943Z,58.50
2022-08-08T07:06:21.003Z,57.93
2022-08-08T07:07:19.972Z,58.23
2022-08-08T07:08:19.959Z,59.13
2022-08-08T07:09:21.229Z,59.03
2022-08-08T07:10:20.021Z,58.00
2022-08-08T07:11:22.624Z,57.50
2022-08-08T07:12:19.907Z,57.90
2022-08-08T07:13:19.923Z,57.90
2022-08-08T07:14:19.879Z,56.98
2022-08-08T07:15:32.786Z,57.28
2022-08-08T07:16:19.861Z,56.65
2022-08-08T07:17:20.072Z,56.55
2022-08-08T07:18:35.954Z,57.32
2022-08-08T07:19:19.807Z,56.15
2022-08-08T07:20:19.807Z,57.35
2022-08-08T07:21:20.521Z,57.24
2022-08-08T07:22:19.781Z,56.87
2022-08-08T07:23:22.403Z,57.28
2022-08-08T07:24:19.755Z,58.48
2022-08-08T07:25:19.740Z,58.91
2022-08-08T07:26:21.727Z,59.38
2022-08-08T07:27:19.710Z,58.18
2022-08-08T07:28:20.168Z,58.91
2022-08-08T07:29:55.421Z,59.50
2022-08-08T07:30:25.724Z,58.40
2022-08-08T07:31:19.768Z,58.48
2022-08-08T07:32:22.338Z,58.28
2022-08-08T07:33:19.625Z,58.32
2022-08-08T07:34:26.828Z,57.52
2022-08-08T07:35:20.623Z,56.79
2022-08-08T07:36:19.596Z,55.84
2022-08-08T07:37:19.584Z,54.69
2022-08-08T07:38:21.011Z,54.44
2022-08-08T07:39:22.497Z,52.42
2022-08-08T07:40:28.986Z,53.74
2022-08-08T07:41:25.131Z,53.69
2022-08-08T07:42:19.515Z,52.07
2022-08-08T07:43:35.072Z,51.03
2022-08-08T07:44:37.398Z,49.98
2022-08-08T07:45:19.469Z,51.05
2022-08-08T07:46:29.055Z,49.63
2022-08-08T07:47:29.242Z,48.69
2022-08-08T07:48:20.460Z,47.28
2022-08-08T07:49:19.422Z,46.94
2022-08-08T07:50:22.121Z,46.37
2022-08-08T07:51:23.642Z,47.86
2022-08-08T07:52:26.702Z,46.82
2022-08-08T07:53:51.924Z,47.39
2022-08-08T07:54:26.592Z,45.09
2022-08-08T07:55:20.365Z,44.54
2022-08-08T07:56:36.826Z,45.73
2022-08-08T07:57:19.816Z,45.61
2022-08-08T07:58:19.307Z,45.67
2022-08-08T07:59:20.102Z,45.41
2022-08-08T08:00:19.284Z,46.63
2022-08-08T08:01:19.613Z,45.52
2022-08-08T08:02:34.282Z,45.40
2022-08-08T08:03:23.571Z,43.03
2022-08-08T08:04:19.236Z,47.06
2022-08-08T08:05:19.225Z,45.14
2022-08-08T08:06:19.205Z,43.34
2022-08-08T08:07:19.194Z,42.63
2022-08-08T08:08:20.571Z,42.24
2022-08-08T08:09:19.197Z,41.96
2022-08-08T08:10:30.419Z,42.65
2022-08-08T08:11:20.850Z,42.14
2022-08-08T08:12:35.193Z,43.01
2022-08-08T08:13:19.118Z,41.80
2022-08-08T08:14:20.124Z,41.51
2022-08-08T08:15:19.085Z,42.38
2022-08-08T08:16:19.086Z,40.33
2022-08-08T08:17:19.069Z,41.93
2022-08-08T08:18:32.250Z,41.33
2022-08-08T08:19:19.752Z,41.49
2022-08-08T08:20:19.033Z,42.83
2022-08-08T08:21:19.200Z,42.20
2022-08-08T08:22:31.467Z,42.08
2022-08-08T08:23:20.025Z,41.55
2022-08-08T08:24:20.008Z,41.43
2022-08-08T08:25:35.848Z,39.48
2022-08-08T08:26:27.528Z,41.56
2022-08-08T08:27:18.947Z,41.37
2022-08-08T08:28:23.890Z,41.33
2022-08-08T08:29:19.403Z,40.82
2022-08-08T08:30:18.946Z,39.88
2022-08-08T08:31:18.900Z,41.35
2022-08-08T08:32:35.993Z,42.19
2022-08-08T08:33:20.063Z,40.48
2022-08-08T08:34:18.867Z,39.17
2022-08-08T08:35:21.758Z,38.39
2022-08-08T08:36:21.693Z,39.23
2022-08-08T08:37:30.624Z,38.26
2022-08-08T08:38:20.052Z,36.96
2022-08-08T08:39:23.004Z,37.75
2022-08-08T08:40:18.906Z,37.75
2022-08-08T08:41:20.156Z,38.34
2022-08-08T08:42:19.269Z,37.73
2022-08-08T08:43:19.806Z,36.77
2022-08-08T08:44:19.462Z,36.69
2022-08-08T08:45:23.153Z,37.10
2022-08-08T08:46:19.134Z,37.94
2022-08-08T08:47:18.760Z,39.53
2022-08-08T08:48:19.513Z,40.76
2022-08-08T08:49:18.694Z,39.54
2022-08-08T08:50:32.491Z,38.00
2022-08-08T08:51:19.681Z,38.28
2022-08-08T08:52:20.548Z,38.55
2022-08-08T08:53:27.854Z,37.26
2022-08-08T08:54:19.677Z,37.22
2022-08-08T08:55:20.235Z,36.23
2022-08-08T08:56:24.013Z,35.74
2022-08-08T08:57:18.593Z,36.51
2022-08-08T08:58:18.607Z,36.39
2022-08-08T08:59:30.458Z,34.94
2022-08-08T09:00:19.150Z,35.64
2022-08-08T09:01:18.606Z,35.64
2022-08-08T09:02:18.587Z,36.68
2022-08-08T09:03:19.373Z,35.53
2022-08-08T09:04:31.861Z,35.12
2022-08-08T09:05:48.780Z,34.55
2022-08-08T09:06:26.159Z,33.97
2022-08-08T09:07:18.488Z,34.83
2022-08-08T09:08:21.040Z,32.86
2022-08-08T09:09:26.161Z,34.31
2022-08-08T09:10:19.508Z,35.42
2022-08-08T09:11:18.441Z,36.41
2022-08-08T09:12:19.832Z,35.13
2022-08-08T09:13:18.439Z,36.28
2022-08-08T09:14:19.421Z,34.18
2022-08-08T09:15:18.649Z,34.41
2022-08-08T09:16:18.383Z,35.66
2022-08-08T09:17:19.541Z,33.62
2022-08-08T09:18:18.360Z,35.45
2022-08-08T09:19:33.928Z,37.00
2022-08-08T09:22:00.314Z,35.48
2022-08-08T09:22:02.791Z,35.34
2022-08-08T09:22:25.878Z,33.22
2022-08-08T09:23:25.967Z,33.09
2022-08-08T09:24:19.606Z,33.26
2022-08-08T09:25:18.287Z,33.67
2022-08-08T09:26:18.263Z,32.87
2022-08-08T09:27:42.104Z,32.71
2022-08-08T09:28:31.574Z,34.57
2022-08-08T09:29:22.165Z,34.18
2022-08-08T09:30:22.039Z,34.45
2022-08-08T09:31:18.213Z,33.67
2022-08-08T09:32:19.444Z,34.44
2022-08-08T09:34:28.314Z,32.09
2022-08-08T09:34:34.274Z,31.49
2022-08-08T09:35:18.168Z,32.06
2022-08-08T09:36:19.343Z,32.71
2022-08-08T09:37:28.667Z,30.19
2022-08-08T09:38:19.152Z,31.66
2022-08-08T09:39:19.340Z,30.80
2022-08-08T09:40:20.307Z,31.41
2022-08-08T09:41:18.104Z,32.19
2022-08-08T09:42:21.072Z,32.58
2022-08-08T09:43:40.471Z,32.75
2022-08-08T09:44:18.067Z,34.44
2022-08-08T09:45:55.343Z,33.95
2022-08-08T09:46:25.632Z,33.85
2022-08-08T09:47:26.464Z,33.45
2022-08-08T09:48:23.497Z,32.55
2022-08-08T09:49:42.772Z,33.79
2022-08-08T09:50:18.001Z,33.22
2022-08-08T09:51:17.986Z,33.07
2022-08-08T09:53:00.287Z,31.28
2022-08-08T09:53:24.678Z,30.93
2022-08-08T09:54:36.676Z,32.45
2022-08-08T09:55:51.448Z,31.67
2022-08-08T09:56:21.995Z,32.26
2022-08-08T09:57:19.101Z,31.37
2022-08-08T09:58:25.711Z,31.37
2022-08-08T09:59:50.566Z,30.29
2022-08-08T10:00:52.965Z,30.88
2022-08-08T10:02:02.002Z,31.76
2022-08-08T10:02:18.882Z,31.66
2022-08-08T10:03:20.125Z,30.18
2022-08-08T10:04:38.748Z,30.57
2022-08-08T10:05:22.964Z,30.38
2022-08-08T10:06:18.846Z,30.34
2022-08-08T10:07:17.816Z,32.70
2022-08-08T10:08:17.806Z,32.35
2022-08-08T10:09:17.796Z,30.99
2022-08-08T10:10:17.787Z,31.37
2022-08-08T10:12:27.881Z,30.65
2022-08-08T10:12:28.273Z,30.54
2022-08-08T10:13:17.762Z,29.72
2022-08-08T10:14:27.707Z,31.52
2022-08-08T10:15:18.809Z,31.75
2022-08-08T10:16:17.714Z,31.93
2022-08-08T10:17:56.900Z,32.42
2022-08-08T10:18:25.517Z,32.31
2022-08-08T10:19:17.684Z,32.39
2022-08-08T10:20:17.673Z,32.18
2022-08-08T10:21:25.310Z,32.39
2022-08-08T10:22:18.668Z,31.70
2022-08-08T10:23:20.804Z,32.18
2022-08-08T10:24:29.582Z,31.77
2022-08-08T10:25:17.615Z,31.28
2022-08-08T10:26:29.930Z,31.35
2022-08-08T10:27:18.618Z,30.98
2022-08-08T10:28:17.611Z,31.56
2022-08-08T10:29:23.091Z,31.53
2022-08-08T10:31:00.835Z,30.44
2022-08-08T10:31:17.553Z,29.88
2022-08-08T10:32:18.568Z,30.07
2022-08-08T10:33:17.915Z,29.79
2022-08-08T10:34:18.561Z,31.13
2022-08-08T10:36:02.849Z,33.18
2022-08-08T10:36:20.998Z,32.97
2022-08-08T10:37:17.488Z,32.06
2022-08-08T10:38:17.478Z,31.66
2022-08-08T10:39:17.545Z,31.16
2022-08-08T10:40:19.887Z,31.73
2022-08-08T10:41:17.447Z,30.55
2022-08-08T10:42:17.450Z,30.64
2022-08-08T10:43:17.426Z,29.47
2022-08-08T10:44:17.416Z,30.77
2022-08-08T10:45:17.407Z,29.52
2022-08-08T10:46:29.964Z,31.87
2022-08-08T10:47:20.672Z,32.52
2022-08-08T10:48:17.371Z,32.86
2022-08-08T10:49:26.899Z,30.88
2022-08-08T10:50:17.351Z,32.11
2022-08-08T10:51:17.345Z,30.64
2022-08-08T10:52:17.326Z,30.04
2022-08-08T10:53:17.324Z,30.15
2022-08-08T10:54:17.316Z,30.22
2022-08-08T10:55:41.351Z,30.90
2022-08-08T10:56:27.862Z,31.67
2022-08-08T10:57:27.554Z,30.10
2022-08-08T10:58:18.304Z,32.05
2022-08-08T10:59:17.271Z,29.49
2022-08-08T11:00:17.256Z,29.82
2022-08-08T11:01:17.306Z,31.95
2022-08-08T11:02:17.313Z,30.87
2022-08-08T11:03:17.219Z,29.79
2022-08-08T11:04:17.209Z,30.47
2022-08-08T11:05:17.827Z,30.35
2022-08-08T11:06:17.187Z,29.52
2022-08-08T11:08:30.562Z,31.34
2022-08-08T11:08:38.932Z,29.26
2022-08-08T11:09:19.871Z,28.65
2022-08-08T11:10:19.888Z,29.41
2022-08-08T11:11:59.431Z,28.63
2022-08-08T11:12:17.357Z,28.80
2022-08-08T11:13:29.560Z,26.96
2022-08-08T11:14:19.373Z,26.97
2022-08-08T11:15:17.094Z,28.15
2022-08-08T11:16:32.952Z,28.96
2022-08-08T11:17:17.074Z,28.08
2022-08-08T11:18:17.054Z,27.90
2022-08-08T11:19:17.976Z,28.08
2022-08-08T11:20:18.011Z,29.04
2022-08-08T11:21:20.250Z,28.45
2022-08-08T11:22:17.112Z,28.50
2022-08-08T11:23:17.005Z,29.38
2022-08-08T11:24:16.998Z,28.68
2022-08-08T11:25:16.989Z,28.47
2022-08-08T11:26:18.683Z,28.07
2022-08-08T11:27:20.108Z,28.74
2022-08-08T11:28:16.958Z,27.84
2022-08-08T11:29:16.946Z,28.14
2022-08-08T11:30:20.210Z,28.41
2022-08-08T11:31:16.920Z,27.71
2022-08-08T11:32:17.099Z,26.76
2022-08-08T11:33:16.907Z,27.53
2022-08-08T11:34:24.130Z,26.18
2022-08-08T11:35:27.265Z,26.21
2022-08-08T11:36:16.872Z,25.82
2022-08-08T11:37:16.865Z,27.47
2022-08-08T11:38:36.115Z,26.90
2022-08-08T11:39:16.904Z,28.08
2022-08-08T11:40:16.913Z,28.45
2022-08-08T11:41:16.820Z,27.79
2022-08-08T11:42:16.808Z,27.51
2022-08-08T11:43:16.806Z,28.23
2022-08-08T11:44:16.792Z,29.21
2022-08-08T11:45:18.346Z,28.23
2022-08-08T11:46:17.826Z,29.08
2022-08-08T11:47:17.496Z,28.78
2022-08-08T11:48:20.351Z,27.50
2022-08-08T11:49:17.268Z,27.43
2022-08-08T11:50:16.728Z,27.34
2022-08-08T11:51:30.848Z,27.16
2022-08-08T11:52:18.328Z,28.72
2022-08-08T11:53:16.720Z,27.73
2022-08-08T11:54:32.385Z,27.25
2022-08-08T11:55:16.684Z,27.55
2022-08-08T11:56:16.671Z,26.87
2022-08-08T11:57:17.585Z,28.34
2022-08-08T11:58:16.655Z,27.37
2022-08-08T11:59:16.635Z,27.90
2022-08-08T12:00:16.621Z,28.47
2022-08-08T12:01:17.200Z,29.61
2022-08-08T12:02:31.738Z,27.56
2022-08-08T12:03:16.702Z,28.12
2022-08-08T12:04:16.582Z,27.54
2022-08-08T12:05:16.573Z,27.25
2022-08-08T12:06:16.552Z,28.22
2022-08-08T12:07:16.754Z,28.33
2022-08-08T12:08:16.528Z,28.33
2022-08-08T12:09:17.250Z,28.53
2022-08-08T12:10:16.510Z,28.16
2022-08-08T12:11:22.967Z,29.81
2022-08-08T12:12:16.924Z,28.34
2022-08-08T12:13:16.490Z,28.43
2022-08-08T12:14:16.480Z,29.11
2022-08-08T12:15:16.467Z,28.15
2022-08-08T12:16:16.453Z,28.54
2022-08-08T12:17:16.443Z,28.16
2022-08-08T12:18:18.163Z,29.04
2022-08-08T12:19:25.816Z,28.85
2022-08-08T12:20:17.434Z,29.22
2022-08-08T12:21:16.398Z,29.02
2022-08-08T12:22:20.651Z,26.78
2022-08-08T12:23:30.128Z,26.13
2022-08-08T12:24:17.383Z,27.50
2022-08-08T12:25:16.354Z,27.51
2022-08-08T12:26:17.373Z,27.52
2022-08-08T12:27:18.299Z,27.33
2022-08-08T12:28:16.315Z,27.83
2022-08-08T12:29:16.314Z,27.34
2022-08-08T12:30:21.768Z,27.25
2022-08-08T12:31:17.319Z,27.54
2022-08-08T12:32:19.547Z,28.32
2022-08-08T12:33:16.302Z,28.69
2022-08-08T12:34:16.251Z,28.99
2022-08-08T12:35:18.384Z,28.58
2022-08-08T12:36:16.273Z,27.90
2022-08-08T12:37:16.223Z,28.19
2022-08-08T12:38:17.809Z,28.29
2022-08-08T12:39:16.236Z,28.59
2022-08-08T12:40:22.752Z,28.22
2022-08-08T12:41:18.164Z,29.50
2022-08-08T12:42:20.781Z,29.50
2022-08-08T12:43:16.163Z,29.61
2022-08-08T12:44:32.098Z,30.29
2022-08-08T12:45:58.045Z,29.03
2022-08-08T12:46:19.073Z,30.69
2022-08-08T12:47:16.119Z,30.30
2022-08-08T12:48:35.528Z,30.51
2022-08-08T12:49:40.460Z,30.49
2022-08-08T12:50:17.098Z,30.30
2022-08-08T12:51:16.075Z,29.93